• Join FlightAware (Why Join?)
  • Login
  • US Flag 
05:36AM EDT


 

Airport Tracker/Info


-or-


 

Live Flight TrackerFlight Track Log ✈ JBU14 ✈ 05-Sep-2013 ✈ KLGB - KJFK

Flight Track Log - Related Links

Times and Time Zones

All times are in EDT time to prevent confusion due to time zone crossing. See the JBU14 flight status page for this flight to view local times or setup timezone preferences in your user account.

Time Position Orientation Groundspeed Altitude Reporting Facility
EDT Latitude Longitude Course Direction KTS MPH feet Rate Location/Type
12:18AM 33.8110 -118.1430 343° North 96 110  Level FlightAware
12:18AM 33.8350 -118.1720 316° Northwest 186 214 1,200 1,680 Climbing FlightAware
12:19AM 33.8480 -118.1880 314° West 196 226 1,800 1,500 Climbing FlightAware
12:19AM 33.8520 -118.1940 309° West 202 232 1,900 720 Climbing FlightAware
12:19AM 33.8550 -118.2040 290° West 209 241 2,000 900 Climbing FlightAware
12:19AM 33.8550 -118.2080 270° West 215 247 2,100 1,260 Climbing FlightAware
12:19AM 33.8450 -118.2340 245° Southwest 237 273 2,600 1,320 Climbing FlightAware
12:20AM 33.8340 -118.2420 211° Southwest 243 280 2,900 1,800 Climbing FlightAware
12:20AM 33.8260 -118.2450 197° South 245 282 3,200 2,040 Climbing FlightAware
12:20AM 33.8030 -118.2510 192° South 248 285 3,900 2,280 Climbing FlightAware
12:20AM 33.7800 -118.2570 192° South 252 290 4,700 2,460 Climbing FlightAware
12:21AM 33.7590 -118.2630 193° South 250 288 5,500 2,640 Climbing FlightAware
12:21AM 33.7390 -118.2680 192° South 247 284 6,300 2,280 Climbing FlightAware
12:21AM 33.7180 -118.2730 191° South 254 292 6,900 2,040 Climbing FlightAware
12:22AM 33.6900 -118.2630 163° South 258 297 7,800 2,340 Climbing FlightAware
12:22AM 33.6860 -118.2580 134° Southeast 258 297 8,000 2,280 Climbing FlightAware
12:22AM 33.6800 -118.2470 123° Southeast 259 298 8,300 2,220 Climbing FlightAware
12:22AM 33.6780 -118.2390 107° East 260 299 8,600 2,400 Climbing FlightAware
12:22AM 33.6760 -118.2270 101° East 261 300 8,900 1,920 Climbing FlightAware
12:23AM 33.6860 -118.1900 72° East 268 308 9,800 2,040 Climbing FlightAware
12:23AM 33.6900 -118.1850 46° Northeast 270 311 10,000 1,620 Climbing FlightAware
12:23AM 33.7250 -118.1460 43° Northeast 293 337 10,900 1,440 Climbing FlightAware
12:24AM 33.7600 -118.1080 42° Northeast 316 364 11,700 1,620 Climbing FlightAware
12:24AM 33.8010 -118.0630 42° Northeast 329 379 12,800 1,680 Climbing FlightAware
12:25AM 33.8370 -118.0230 43° Northeast 339 390 13,700 1,800 Climbing FlightAware
12:26AM 33.8800 -117.9750 43° Northeast 344 396 14,900 1,740 Climbing FlightAware
12:26AM 33.9240 -117.9280 42° Northeast 355 409 15,900 1,500 Climbing FlightAware
12:27AM 33.9670 -117.8880 38° Northeast 368 423 16,700 1,020 Climbing FlightAware
12:27AM 34.0190 -117.8410 37° Northeast 391 450 17,100 720 Climbing FlightAware
12:28AM 34.0740 -117.7900 38° Northeast 411 473 17,600 1,020 Climbing FlightAware
12:28AM 34.1140 -117.7400 46° Northeast 415 478 18,300 1,320 Climbing FlightAware
12:29AM 34.1640 -117.6770 46° Northeast 423 487 19,100 1,620 Climbing FlightAware
12:30AM 34.2140 -117.6130 47° Northeast 419 482 20,300 1,320 Climbing FlightAware
12:30AM 34.2580 -117.5570 46° Northeast 431 496 20,700 840 Climbing FlightAware
12:31AM 34.3060 -117.4960 46° Northeast 437 503 21,300 1,140 Climbing FlightAware
12:32AM 34.3680 -117.4170 46° Northeast 442 509 22,200 1,080 Climbing FlightAware
12:32AM 34.4190 -117.3520 46° Northeast 446 513 22,800 1,020 Climbing FlightAware
12:33AM 34.4640 -117.2940 47° Northeast 449 517 23,400 900 Climbing FlightAware
12:33AM 34.5170 -117.2260 47° Northeast 455 524 23,900 780 Climbing FlightAware
12:34AM 34.5680 -117.1600 47° Northeast 463 533 24,400 840 Climbing FlightAware
12:35AM 34.6220 -117.0910 46° Northeast 466 536 24,900 840 Climbing FlightAware
12:35AM 34.6700 -117.0290 47° Northeast 471 542 25,400 900 Climbing FlightAware
12:36AM 34.7190 -116.9670 46° Northeast 474 545 25,900 720 Climbing FlightAware
12:36AM 34.7770 -116.8900 47° Northeast 478 550 26,300 720 Climbing FlightAware
12:37AM 34.8300 -116.8230 46° Northeast 481 554 26,800 720 Climbing FlightAware
12:37AM 34.8840 -116.7530 47° Northeast 486 559 27,200 660 Climbing FlightAware
12:38AM 34.9350 -116.6860 47° Northeast 490 564 27,600 660 Climbing FlightAware
12:39AM 34.9870 -116.6180 47° Northeast 493 567 28,000 600 Climbing FlightAware
12:39AM 35.0430 -116.5450 47° Northeast 498 573 28,300 900 Climbing FlightAware
12:40AM 35.1020 -116.4670 47° Northeast 492 566 29,100 1,080 Climbing FlightAware
12:40AM 35.1590 -116.3930 47° Northeast 488 562 29,700 840 Climbing FlightAware
12:41AM 35.2220 -116.3090 47° Northeast 490 564 30,200 780 Climbing FlightAware
12:42AM 35.2750 -116.2390 47° Northeast 490 564 30,700 900 Climbing FlightAware
12:42AM 35.3320 -116.1640 47° Northeast 488 562 31,300 1,020 Climbing FlightAware
12:43AM 35.3820 -116.0980 47° Northeast 484 557 31,900 1,020 Climbing FlightAware
12:43AM 35.4360 -116.0260 47° Northeast 479 551 32,500 660 Climbing FlightAware
12:44AM 35.4900 -115.9550 47° Northeast 484 557 32,700 420 Climbing FlightAware
12:45AM 35.5390 -115.8890 48° Northeast 480 552 33,000 240 Climbing FlightAware
12:45AM 35.5930 -115.8150 48° Northeast 480 552 33,000  Level FlightAware
12:46AM 35.6320 -115.7320 60° Northeast 477 549 33,000  Level FlightAware
12:46AM 35.6670 -115.6540 61° Northeast 477 549 33,000  Level FlightAware
12:47AM 35.7070 -115.5670 60° Northeast 477 549 33,000  Level FlightAware
12:47AM 35.7460 -115.4820 61° Northeast 479 551 33,000  Level FlightAware
12:48AM 35.7810 -115.4030 61° Northeast 481 554 33,000  Level FlightAware
12:49AM 35.8210 -115.3140 61° Northeast 482 555 33,000  Level FlightAware
12:49AM 35.8580 -115.2320 61° Northeast 482 555 33,000 60 Level FlightAware
12:50AM 35.8910 -115.1580 61° Northeast 482 555 33,100  Climbing FlightAware
12:50AM 35.9330 -115.0640 61° Northeast 481 554 33,000 -120 Descending FlightAware
12:51AM 35.9640 -114.9960 61° Northeast 481 554 33,000  Level FlightAware
12:51AM 36.0020 -114.9100 61° Northeast 482 555 33,000  Level FlightAware
12:52AM 36.0400 -114.8250 61° Northeast 484 557 33,000  Level FlightAware
12:53AM 36.0750 -114.7470 61° Northeast 483 556 33,000  Level FlightAware
12:53AM 36.1150 -114.6560 61° Northeast 482 555 33,000  Level FlightAware
12:54AM 36.1510 -114.5760 61° Northeast 480 552 33,000  Level FlightAware
12:54AM 36.1900 -114.4860 62° Northeast 479 551 33,000  Level FlightAware
12:55AM 36.2250 -114.4070 61° Northeast 479 551 33,000  Level FlightAware
12:56AM 36.2630 -114.3210 61° Northeast 481 554 33,000  Level FlightAware
12:56AM 36.3030 -114.2300 61° Northeast 480 552 33,000  Level FlightAware
12:57AM 36.3350 -114.1550 62° Northeast 480 552 33,000  Level FlightAware
12:57AM 36.3730 -114.0680 62° Northeast 480 552 33,000  Level FlightAware
12:58AM 36.4120 -113.9790 61° Northeast 481 554 33,000  Level FlightAware
12:58AM 36.4440 -113.9040 62° Northeast 482 555 33,000  Level FlightAware
12:59AM 36.4840 -113.8130 61° Northeast 482 555 33,000  Level FlightAware
01:00AM 36.5200 -113.7280 62° Northeast 481 554 33,000  Level FlightAware
01:00AM 36.5580 -113.6400 62° Northeast 479 551 33,000  Level FlightAware
01:01AM 36.5970 -113.5500 62° Northeast 478 550 33,000  Level FlightAware
01:01AM 36.6300 -113.4710 62° Northeast 479 551 33,000  Level FlightAware
01:02AM 36.6670 -113.3870 61° Northeast 477 549 33,000  Level FlightAware
01:02AM 36.7010 -113.3050 63° Northeast 475 547 33,000  Level FlightAware
01:03AM 36.7390 -113.2170 62° Northeast 475 547 33,000  Level FlightAware
01:04AM 36.7750 -113.1300 63° Northeast 476 548 33,000  Level FlightAware
01:04AM 36.8130 -113.0400 62° Northeast 477 549 33,000  Level FlightAware
01:05AM 36.8450 -112.9650 62° Northeast 479 551 33,000  Level FlightAware
01:05AM 36.8820 -112.8770 62° Northeast 480 552 33,000  Level FlightAware
01:06AM 36.9160 -112.7950 63° Northeast 480 552 33,000  Level FlightAware
01:07AM 36.9560 -112.6990 62° Northeast 479 551 33,000  Level FlightAware
01:07AM 36.9900 -112.6180 62° Northeast 479 551 33,000  Level FlightAware
01:08AM 37.0270 -112.5310 62° Northeast 478 550 33,000  Level FlightAware
01:08AM 37.0620 -112.4450 63° Northeast 479 551 33,000  Level FlightAware
01:09AM 37.0950 -112.3660 62° Northeast 478 550 33,000  Level FlightAware
01:10AM 37.1340 -112.2730 62° Northeast 478 550 33,000  Level FlightAware
01:10AM 37.1790 -112.1630 63° Northeast 478 550 33,000  Level FlightAware
01:11AM 37.2110 -112.0880 62° Northeast 478 550 33,000  Level FlightAware
01:11AM 37.2380 -112.0240 62° Northeast 478 550 33,000  Level FlightAware
01:12AM 37.2700 -111.9490 62° Northeast 478 550 33,000  Level FlightAware
01:13AM 37.3010 -111.8730 63° Northeast 478 550 33,000  Level FlightAware
01:13AM 37.3330 -111.7980 62° Northeast 478 550 33,000  Level FlightAware
01:14AM 37.3650 -111.7230 62° Northeast 478 550 33,000  Level FlightAware
01:14AM 37.3970 -111.6480 62° Northeast 478 550 33,000  Level FlightAware
01:15AM 37.4280 -111.5730 62° Northeast 478 550 33,000  Level FlightAware
01:16AM 37.4600 -111.4970 62° Northeast 478 550 33,000  Level FlightAware
01:16AM 37.4920 -111.4220 62° Northeast 478 550 33,000  Level FlightAware
01:17AM 37.5240 -111.3470 62° Northeast 478 550 33,000  Level FlightAware
01:17AM 37.5560 -111.2710 62° Northeast 478 550 33,000  Level FlightAware
01:18AM 37.5870 -111.1960 62° Northeast 478 550 33,000  Level FlightAware
01:19AM 37.6190 -111.1210 62° Northeast 478 550 33,000  Level FlightAware
01:19AM 37.6510 -111.0450 62° Northeast 478 550 33,000  Level FlightAware
01:20AM 37.6830 -110.9700 62° Northeast 478 550 33,000  Level FlightAware
01:22AM 37.8650 -110.4420 66° East 465 535 33,000  Level FlightAware
01:22AM 37.8930 -110.3710 63° Northeast 465 535 33,000  Level FlightAware
01:23AM 37.9250 -110.2880 64° Northeast 466 536 33,000  Level FlightAware
01:24AM 37.9590 -110.1980 64° Northeast 466 536 33,000  Level FlightAware
01:24AM 37.9920 -110.1120 64° Northeast 466 536 33,000  Level FlightAware
01:25AM 38.0260 -110.0260 63° Northeast 467 537 33,000  Level FlightAware
01:25AM 38.0570 -109.9430 65° Northeast 466 536 33,000  Level FlightAware
01:26AM 38.0960 -109.8410 64° Northeast 466 536 33,000  Level FlightAware
01:27AM 38.1230 -109.7700 64° Northeast 466 536 33,000  Level FlightAware
01:27AM 38.1560 -109.6830 64° Northeast 465 535 33,000  Level FlightAware
01:28AM 38.1890 -109.5960 64° Northeast 464 534 33,000  Level FlightAware
01:28AM 38.2210 -109.5120 64° Northeast 465 535 33,000  Level FlightAware
01:29AM 38.2530 -109.4250 65° Northeast 466 536 33,000  Level FlightAware
01:29AM 38.2870 -109.3360 64° Northeast 467 537 33,000  Level FlightAware
01:30AM 38.3240 -109.2370 65° Northeast 469 540 33,000  Level FlightAware
01:31AM 38.3560 -109.1500 65° Northeast 471 542 33,000  Level FlightAware
01:31AM 38.3840 -109.0750 65° Northeast 472 543 33,000  Level FlightAware
01:32AM 38.4160 -108.9880 65° Northeast 471 542 33,000  Level FlightAware
01:32AM 38.4530 -108.8870 65° Northeast 470 541 33,000  Level FlightAware
01:33AM 38.4900 -108.7890 64° Northeast 469 540 33,000  Level FlightAware
01:34AM 38.5230 -108.6990 65° Northeast 469 540 33,000  Level FlightAware
01:34AM 38.5590 -108.6000 65° Northeast 468 539 33,000  Level FlightAware
01:35AM 38.5960 -108.4990 65° Northeast 466 536 33,000  Level FlightAware
01:36AM 38.6230 -108.4250 65° Northeast 465 535 33,000  Level FlightAware
01:36AM 38.6550 -108.3360 65° Northeast 464 534 33,000  Level FlightAware
01:37AM 38.6900 -108.2380 65° Northeast 465 535 33,000  Level FlightAware
01:37AM 38.7220 -108.1510 65° Northeast 463 533 33,000  Level FlightAware
01:38AM 38.7480 -108.0770 66° East 464 534 33,000  Level FlightAware
01:38AM 38.7770 -107.9970 65° Northeast 465 535 33,000  Level FlightAware
01:39AM 38.8130 -107.8950 66° East 467 537 33,000  Level FlightAware
01:40AM 38.8410 -107.8170 65° Northeast 466 536 33,000  Level FlightAware
01:40AM 38.8740 -107.7240 65° Northeast 466 536 33,000  Level FlightAware
01:41AM 38.9100 -107.6240 65° Northeast 467 537 33,000  Level FlightAware
01:41AM 38.9410 -107.5360 66° East 469 540 33,000  Level FlightAware
01:42AM 38.9680 -107.4590 66° East 472 543 33,000  Level FlightAware
01:43AM 39.0000 -107.3690 65° Northeast 473 544 33,000  Level FlightAware
01:43AM 39.0350 -107.2680 66° East 472 543 33,000  Level FlightAware
01:44AM 39.0660 -107.1770 66° East 472 543 33,000  Level FlightAware
01:44AM 39.0920 -107.1020 66° East 473 544 33,000 60 Level FlightAware
01:45AM 39.1330 -106.9850 66° East 470 541 33,100  Climbing FlightAware
01:46AM 39.1640 -106.8950 66° East 469 540 33,000 -120 Descending FlightAware
01:46AM 39.1940 -106.8090 66° East 467 537 33,000  Level FlightAware
01:47AM 39.2240 -106.7200 66° East 467 537 33,000  Level FlightAware
01:47AM 39.2550 -106.6290 66° East 469 540 33,000  Level FlightAware
01:48AM 39.2870 -106.5360 66° East 469 540 33,000  Level FlightAware
01:49AM 39.3180 -106.4450 66° East 471 542 33,000  Level FlightAware
01:49AM 39.3460 -106.3620 66° East 472 543 33,000 60 Level FlightAware
01:50AM 39.3780 -106.2670 66° East 470 541 33,100  Climbing FlightAware
01:50AM 39.4090 -106.1770 66° East 469 540 33,000 -120 Descending FlightAware
01:51AM 39.4400 -106.0840 67° East 468 539 33,000  Level FlightAware
01:51AM 39.4680 -106.0010 66° East 467 537 33,000  Level FlightAware
01:52AM 39.5010 -105.9020 67° East 467 537 33,000  Level FlightAware
01:53AM 39.5270 -105.8210 67° East 466 536 33,000  Level FlightAware
01:53AM 39.5600 -105.7230 66° East 467 537 33,000  Level FlightAware
01:54AM 39.5870 -105.6410 67° East 468 539 33,000  Level FlightAware
01:54AM 39.6200 -105.5410 67° East 471 542 33,000  Level FlightAware
01:55AM 39.6480 -105.4560 67° East 474 545 33,000  Level FlightAware
01:56AM 39.6780 -105.3650 67° East 474 545 33,000 60 Level FlightAware
01:56AM 39.7080 -105.2710 67° East 471 542 33,100  Climbing FlightAware
01:57AM 39.7390 -105.1770 67° East 471 542 33,000  Descending FlightAware
01:57AM 39.7660 -105.0930 67° East 471 542 33,100 300 Climbing FlightAware
01:58AM 39.7980 -104.9940 67° East 476 548 33,400 840 Climbing FlightAware
01:58AM 39.8250 -104.9090 68° East 468 539 34,100 1,140 Climbing FlightAware
01:59AM 39.8550 -104.8170 67° East 466 536 34,700 720 Climbing FlightAware
02:00AM 39.8850 -104.7240 67° East 463 533 35,000 240 Climbing FlightAware
02:00AM 39.9140 -104.6300 68° East 464 534 35,000  Level FlightAware
02:01AM 39.9410 -104.5470 67° East 464 534 35,000  Level FlightAware
02:01AM 39.9700 -104.4560 67° East 463 533 35,000  Level FlightAware
02:02AM 39.9960 -104.3720 68° East 464 534 35,000  Level FlightAware
02:03AM 40.0270 -104.2730 68° East 464 534 35,000  Level FlightAware
02:03AM 40.0560 -104.1800 68° East 464 534 35,000  Level FlightAware
02:04AM 40.0820 -104.1000 67° East 465 535 35,000  Level FlightAware
02:04AM 40.1110 -104.0050 68° East 465 535 35,000  Level FlightAware
02:05AM 40.1400 -103.9120 68° East 467 537 35,000  Level FlightAware
02:05AM 40.1690 -103.8160 68° East 467 537 35,000  Level FlightAware
02:06AM 40.1950 -103.7330 68° East 467 537 35,000  Level FlightAware
02:07AM 40.2240 -103.6390 68° East 468 539 35,000  Level FlightAware
02:07AM 40.2530 -103.5450 68° East 468 539 35,000  Level FlightAware
02:08AM 40.2820 -103.4490 68° East 468 539 35,000  Level FlightAware
02:08AM 40.3070 -103.3650 69° East 467 537 35,000  Level FlightAware
02:09AM 40.3360 -103.2710 68° East 465 535 35,000  Level FlightAware
02:10AM 40.3650 -103.1750 68° East 466 536 35,000  Level FlightAware
02:10AM 40.3900 -103.0900 69° East 468 539 35,000  Level FlightAware
02:10AM 40.4050 -103.0410 68° East 469 540 35,000  Level FlightAware
02:11AM 40.4430 -102.9150 68° East 469 540 35,000  Level FlightAware
02:12AM 40.4730 -102.8160 68° East 469 540 35,000  Level FlightAware
02:12AM 40.5000 -102.7240 69° East 469 540 35,000  Level FlightAware
02:13AM 40.5250 -102.6380 69° East 469 540 35,000  Level FlightAware
02:14AM 40.5530 -102.5440 69° East 470 541 35,000  Level FlightAware
02:14AM 40.5820 -102.4470 68° East 470 541 35,000  Level FlightAware
02:15AM 40.6090 -102.3520 69° East 470 541 35,000  Level FlightAware
02:15AM 40.6340 -102.2670 69° East 472 543 35,000  Level FlightAware
02:16AM 40.6640 -102.1620 69° East 474 545 35,000  Level FlightAware
02:17AM 40.6930 -102.0650 68° East 475 547 35,000  Level FlightAware
02:17AM 40.7170 -101.9800 70° East 475 547 35,000  Level FlightAware
02:18AM 40.7420 -101.8970 68° East 475 547 35,000  Level FlightAware
02:18AM 40.7660 -101.8120 70° East 475 547 35,000  Level FlightAware
02:19AM 40.7760 -101.6330 86° East 479 551 35,000  Level FlightAware
02:20AM 40.7890 -101.5350 80° East 479 551 35,000  Level FlightAware
02:20AM 40.8010 -101.4470 80° East 479 551 35,000  Level FlightAware
02:21AM 40.8130 -101.3590 80° East 479 551 35,000  Level FlightAware
02:22AM 40.8250 -101.2680 80° East 479 551 35,000  Level FlightAware
02:22AM 40.8370 -101.1800 80° East 479 551 35,000  Level FlightAware
02:23AM 40.8480 -101.0910 81° East 479 551 35,000  Level FlightAware
02:23AM 40.8600 -101.0030 80° East 479 551 35,000  Level FlightAware
02:24AM 40.8720 -100.9150 80° East 479 551 35,000  Level FlightAware
02:25AM 40.8840 -100.8260 80° East 479 551 35,000  Level FlightAware
02:25AM 40.8950 -100.7380 81° East 479 551 35,000  Level FlightAware
02:26AM 40.9070 -100.6500 80° East 479 551 35,000  Level FlightAware
02:26AM 40.9190 -100.5590 80° East 479 551 35,000  Level FlightAware
02:27AM 40.9320 -100.4660 79° East 479 551 35,000  Level FlightAware
02:28AM 40.9430 -100.3770 81° East 479 551 35,000  Level FlightAware
02:29AM 40.9852 -99.9805 82° East 474 545 35,000  Level FlightAware ADS-B
02:32AM 41.0473 -99.4490 81° East 472 543 35,000  Level FlightAware ADS-B
02:33AM 41.0648 -99.2953 81° East 475 547 35,000  Level FlightAware ADS-B
02:33AM 41.0746 -99.2080 82° East 477 549 35,000  Level FlightAware ADS-B
02:34AM 41.0845 -99.1191 82° East 480 552 35,000  Level FlightAware ADS-B
02:34AM 41.0942 -99.0310 82° East 482 555 35,000 60 Level FlightAware ADS-B
02:35AM 41.1082 -98.9030 82° East 481 554 35,100 60 Climbing FlightAware ADS-B
02:36AM 41.1178 -98.8152 82° East 478 550 35,100  Level FlightAware ADS-B
02:36AM 41.1273 -98.7277 82° East 476 548 35,100 -120 Level FlightAware ADS-B
02:37AM 41.1365 -98.6412 82° East 475 547 35,000 -120 Descending FlightAware ADS-B
02:37AM 41.1459 -98.5537 82° East 473 544 35,000  Level FlightAware ADS-B
02:38AM 41.1641 -98.3804 82° East 470 541 35,000  Level FlightAware ADS-B
02:39AM 41.1731 -98.2946 82° East 468 539 35,000  Level FlightAware ADS-B
02:39AM 41.1820 -98.2086 82° East 466 536 35,000  Level FlightAware ADS-B
02:40AM 41.1909 -98.1217 82° East 467 537 35,000  Level FlightAware ADS-B
02:40AM 41.1997 -98.0355 82° East 466 536 35,000  Level FlightAware ADS-B
02:41AM 41.2086 -97.9474 82° East 465 535 35,000  Level FlightAware ADS-B
02:41AM 41.2181 -97.8525 82° East 463 533 35,000  Level FlightAware ADS-B
02:42AM 41.2267 -97.7670 82° East 462 532 35,000  Level FlightAware ADS-B
02:42AM 41.2360 -97.6726 83° East 461 531 35,000  Level FlightAware ADS-B
02:43AM 41.2443 -97.5879 83° East 460 529 35,000  Level FlightAware ADS-B
02:43AM 41.2525 -97.5033 83° East 460 529 35,000  Level FlightAware ADS-B
02:44AM 41.2607 -97.4186 83° East 461 531 35,000  Level FlightAware ADS-B
02:44AM 41.2689 -97.3331 83° East 461 531 35,000  Level FlightAware ADS-B
02:45AM 41.2773 -97.2452 83° East 461 531 35,000  Level FlightAware ADS-B
02:45AM 41.2862 -97.1508 83° East 461 531 35,000  Level FlightAware ADS-B
02:46AM 41.2981 -97.0223 83° East 460 529 35,000  Level FlightAware ADS-B
02:47AM 41.3061 -96.9358 83° East 459 528 35,000  Level FlightAware ADS-B
02:47AM 41.3139 -96.8491 83° East 460 529 35,000  Level FlightAware ADS-B
02:48AM 41.3216 -96.7637 83° East 460 529 35,000  Level FlightAware ADS-B
02:48AM 41.3293 -96.6788 83° East 461 531 35,000  Level FlightAware ADS-B
02:49AM 41.3369 -96.5943 83° East 460 529 35,000  Level FlightAware ADS-B
02:49AM 41.3445 -96.5088 83° East 460 529 35,000  Level FlightAware ADS-B
02:50AM 41.3520 -96.4226 83° East 461 531 35,000  Level FlightAware ADS-B
02:50AM 41.3595 -96.3357 83° East 460 529 35,000  Level FlightAware ADS-B
02:51AM 41.3668 -96.2508 83° East 460 529 35,000  Level FlightAware ADS-B
02:51AM 41.3739 -96.1671 84° East 460 529 35,000  Level FlightAware ADS-B
02:52AM 41.3811 -96.0821 84° East 461 531 35,000  Level FlightAware ADS-B
02:52AM 41.3882 -95.9969 84° East 462 532 35,000  Level FlightAware ADS-B
02:53AM 41.3954 -95.9119 84° East 464 534 35,000  Level FlightAware ADS-B
02:53AM 41.4024 -95.8253 84° East 466 536 35,000  Level FlightAware ADS-B
02:54AM 41.4094 -95.7390 84° East 467 537 35,000  Level FlightAware ADS-B
02:54AM 41.4163 -95.6525 84° East 468 539 35,000  Level FlightAware ADS-B
02:55AM 41.4232 -95.5661 84° East 467 537 35,000  Level FlightAware ADS-B
02:55AM 41.4302 -95.4774 84° East 467 537 35,000  Level FlightAware ADS-B
02:56AM 41.4369 -95.3913 84° East 467 537 35,000  Level FlightAware ADS-B
02:56AM 41.4438 -95.3047 84° East 469 540 35,000  Level FlightAware ADS-B
02:57AM 41.4505 -95.2180 84° East 468 539 35,000  Level FlightAware ADS-B
02:57AM 41.4571 -95.1318 84° East 469 540 35,000  Level FlightAware ADS-B
02:58AM 41.4636 -95.0435 84° East 470 541 35,000  Level FlightAware ADS-B
02:58AM 41.4700 -94.9569 84° East 470 541 35,000  Level FlightAware ADS-B
02:59AM 41.4777 -94.8530 84° East 470 541 35,000  Level FlightAware ADS-B
02:59AM 41.4841 -94.7654 84° East 469 540 35,000  Level FlightAware ADS-B
03:00AM 41.4904 -94.6784 84° East 470 541 35,000  Level FlightAware ADS-B
03:00AM 41.4966 -94.5917 85° East 470 541 35,000  Level FlightAware ADS-B
03:01AM 41.5027 -94.5045 85° East 471 542 35,000  Level FlightAware ADS-B
03:01AM 41.5089 -94.4172 85° East 471 542 35,000  Level FlightAware ADS-B
03:02AM 41.5149 -94.3299 85° East 470 541 35,000  Level FlightAware ADS-B
03:02AM 41.5209 -94.2417 85° East 468 539 35,000  Level FlightAware ADS-B
03:03AM 41.5287 -94.1250 85° East 467 537 35,000  Level FlightAware ADS-B
03:04AM 41.5346 -94.0371 85° East 467 537 35,000  Level FlightAware ADS-B
03:04AM 41.5407 -93.9449 85° East 467 537 35,000  Level FlightAware ADS-B
03:05AM 41.5463 -93.8588 85° East 467 537 35,000  Level FlightAware ADS-B
03:05AM 41.5520 -93.7702 85° East 468 539 35,000  Level FlightAware ADS-B
03:06AM 41.5575 -93.6826 85° East 469 540 35,000  Level FlightAware ADS-B
03:06AM 41.5629 -93.5962 85° East 469 540 35,000  Level FlightAware ADS-B
03:07AM 41.5682 -93.5096 85° East 470 541 35,000  Level FlightAware ADS-B
03:07AM 41.5736 -93.4206 85° East 469 540 35,000  Level FlightAware ADS-B
03:08AM 41.5789 -93.3336 85° East 467 537 35,000  Level FlightAware ADS-B
03:08AM 41.5841 -93.2448 85° East 468 539 35,000  Level FlightAware ADS-B
03:09AM 41.5900 -93.1430 86° East 468 539 35,000  Level FlightAware
03:09AM 41.5971 -93.0219 85° East 469 540 35,000  Level FlightAware ADS-B
03:10AM 41.6020 -92.9350 86° East 469 540 35,000  Level FlightAware
03:11AM 41.6070 -92.8430 86° East 470 541 35,000  Level FlightAware
03:11AM 41.6130 -92.7270 86° East 471 542 35,000  Level FlightAware
03:12AM 41.6200 -92.6050 86° East 471 542 35,000  Level FlightAware
03:13AM 41.6260 -92.4960 86° East 471 542 35,000  Level FlightAware
03:13AM 41.6310 -92.3920 86° East 471 542 35,000  Level FlightAware
03:14AM 41.6370 -92.2880 86° East 472 543 35,000  Level FlightAware
03:14AM 41.6410 -92.1940 87° East 473 544 35,000  Level FlightAware
03:15AM 41.6460 -92.0950 86° East 474 545 35,000  Level FlightAware
03:15AM 41.6510 -91.9860 86° East 475 547 35,000  Level FlightAware
03:16AM 41.6560 -91.8900 86° East 476 548 35,000  Level FlightAware
03:17AM 41.6610 -91.7870 86° East 478 550 35,000 60 Level FlightAware
03:17AM 41.6660 -91.6730 87° East 476 548 35,100 60 Climbing FlightAware
03:18AM 41.6700 -91.5790 87° East 475 547 35,100 -120 Level FlightAware
03:18AM 41.6750 -91.4740 86° East 474 545 35,000 -120 Descending FlightAware
03:19AM 41.6800 -91.3650 86° East 473 544 35,000  Level FlightAware
03:19AM 41.6840 -91.2700 87° East 472 543 35,000  Level FlightAware
03:20AM 41.6880 -91.1650 87° East 471 542 35,000  Level FlightAware
03:21AM 41.6920 -91.0710 87° East 471 542 35,000  Level FlightAware
03:21AM 41.6960 -90.9620 87° East 472 543 35,000  Level FlightAware
03:22AM 41.7000 -90.8560 87° East 473 544 35,000  Level FlightAware
03:22AM 41.7040 -90.7630 87° East 473 544 35,000  Level FlightAware
03:23AM 41.7070 -90.6610 88° East 473 544 35,000  Level FlightAware
03:24AM 41.7110 -90.5530 87° East 473 544 35,000  Level FlightAware
03:24AM 41.7150 -90.4490 87° East 472 543 35,000  Level FlightAware
03:25AM 41.7180 -90.3540 88° East 471 542 35,000  Level FlightAware
03:25AM 41.7220 -90.2460 87° East 470 541 35,000  Level FlightAware
03:26AM 41.7250 -90.1520 88° East 469 540 35,000  Level FlightAware
03:27AM 41.7280 -90.0460 88° East 469 540 35,000  Level FlightAware
03:27AM 41.7310 -89.9390 88° East 468 539 35,000  Level FlightAware
03:28AM 41.7340 -89.8500 87° East 468 539 35,000  Level FlightAware
03:28AM 41.7370 -89.7480 88° East 467 537 35,000  Level FlightAware
03:29AM 41.7400 -89.6410 88° East 465 535 35,000  Level FlightAware
03:29AM 41.7430 -89.5350 88° East 464 534 35,000  Level FlightAware
03:30AM 41.7450 -89.4370 88° East 463 533 35,000  Level FlightAware
03:31AM 41.7480 -89.3400 88° East 464 534 35,000  Level FlightAware
03:31AM 41.7500 -89.2470 88° East 464 534 35,000  Level FlightAware
03:32AM 41.7520 -89.1470 88° East 463 533 35,000  Level FlightAware
03:32AM 41.7550 -89.0380 88° East 461 531 35,000  Level FlightAware
03:33AM 41.7570 -88.9350 88° East 461 531 35,000  Level FlightAware
03:33AM 41.7610 -88.8460 87° East 459 528 35,000  Level FlightAware
03:34AM 41.7680 -88.7430 85° East 459 528 35,000  Level FlightAware
03:35AM 41.7740 -88.6420 85° East 459 528 35,000  Level FlightAware
03:35AM 41.7790 -88.5560 86° East 459 528 35,000  Level FlightAware
03:36AM 41.7840 -88.4480 86° East 459 528 35,000  Level FlightAware
03:36AM 41.7900 -88.3470 85° East 459 528 35,000  Level FlightAware
03:37AM 41.7950 -88.2440 86° East 460 529 35,000  Level FlightAware
03:38AM 41.8000 -88.1530 86° East 461 531 35,000  Level FlightAware
03:38AM 41.8050 -88.0510 86° East 461 531 35,000  Level FlightAware
03:39AM 41.8100 -87.9490 86° East 462 532 35,000  Level FlightAware
03:39AM 41.8150 -87.8450 86° East 463 533 35,000  Level FlightAware
03:40AM 41.8190 -87.7560 87° East 464 534 35,000  Level FlightAware
03:41AM 41.8240 -87.6510 86° East 464 534 35,000  Level FlightAware
03:41AM 41.8290 -87.5480 86° East 464 534 35,000  Level FlightAware
03:42AM 41.8340 -87.4450 86° East 463 533 35,000  Level FlightAware
03:42AM 41.8380 -87.3490 87° East 463 533 35,000  Level FlightAware
03:43AM 41.8420 -87.2620 86° East 462 532 35,000  Level FlightAware
03:43AM 41.8470 -87.1530 86° East 462 532 35,000  Level FlightAware
03:44AM 41.8510 -87.0530 87° East 463 533 35,000  Level FlightAware
03:45AM 41.8550 -86.9460 87° East 464 534 35,000  Level FlightAware
03:45AM 41.8590 -86.8500 87° East 464 534 35,000  Level FlightAware
03:46AM 41.8630 -86.7470 87° East 465 535 35,000  Level FlightAware
03:46AM 41.8670 -86.6410 87° East 465 535 35,000  Level FlightAware
03:47AM 41.8710 -86.5510 87° East 465 535 35,000  Level FlightAware
03:47AM 41.8750 -86.4470 87° East 465 535 35,000  Level FlightAware
03:48AM 41.8790 -86.3410 87° East 465 535 35,000  Level FlightAware
03:49AM 41.8820 -86.2410 88° East 465 535 35,000  Level FlightAware
03:49AM 41.8850 -86.1480 87° East 464 534 35,000  Level FlightAware
03:50AM 41.8880 -86.0510 88° East 464 534 35,000  Level FlightAware
03:50AM 41.8920 -85.9410 87° East 463 533 35,000  Level FlightAware
03:51AM 41.8950 -85.8390 88° East 463 533 35,000  Level FlightAware
03:52AM 41.8980 -85.7480 87° East 464 534 35,000  Level FlightAware
03:52AM 41.9010 -85.6440 88° East 466 536 35,000  Level FlightAware
03:53AM 41.9040 -85.5380 88° East 465 535 35,000 60 Level FlightAware
03:53AM 41.9070 -85.4480 87° East 464 534 35,100  Climbing FlightAware
03:54AM 41.9090 -85.3410 89° East 463 533 35,000 -120 Descending FlightAware
03:55AM 41.9120 -85.2340 88° East 462 532 35,000  Level FlightAware
03:55AM 41.9150 -85.1380 88° East 461 531 35,000  Level FlightAware
03:56AM 41.9170 -85.0470 88° East 461 531 35,000  Level FlightAware
03:56AM 41.9190 -84.9620 88° East 462 532 35,000  Level FlightAware
03:57AM 41.9220 -84.8460 88° East 462 532 35,000  Level FlightAware
03:57AM 41.9240 -84.7430 88° East 464 534 35,000  Level FlightAware
03:58AM 41.9260 -84.6440 88° East 464 534 35,000  Level FlightAware
03:59AM 41.9280 -84.5410 88° East 464 534 35,000  Level FlightAware
03:59AM 41.9300 -84.4370 88° East 463 533 35,000  Level FlightAware
04:00AM 41.9320 -84.3360 88° East 463 533 35,000  Level FlightAware
04:00AM 41.9330 -84.2540 89° East 464 534 35,000  Level FlightAware
04:01AM 41.9350 -84.1520 88° East 464 534 35,000  Level FlightAware
04:02AM 41.9370 -84.0350 89° East 466 536 35,000  Level FlightAware
04:02AM 41.9380 -83.9300 89° East 466 536 35,000  Level FlightAware
04:03AM 41.9400 -83.8440 88° East 467 537 35,000  Level FlightAware
04:03AM 41.9410 -83.7360 89° East 467 537 35,000  Level FlightAware
04:04AM 41.9420 -83.6310 89° East 467 537 35,000  Level FlightAware
04:04AM 41.9440 -83.5250 89° East 467 537 35,000  Level FlightAware
04:05AM 41.9440 -83.4310 90° East 467 537 35,000  Level FlightAware
04:06AM 41.9450 -83.3250 89° East 468 539 35,000  Level FlightAware
04:06AM 41.9460 -83.2210 89° East 469 540 35,000  Level FlightAware
04:07AM 41.9470 -83.1190 89° East 469 540 35,000  Level FlightAware
04:07AM 41.9480 -83.0250 89° East 470 541 35,000  Level FlightAware
04:08AM 41.9490 -82.9120 89° East 471 542 35,000  Level FlightAware
04:08AM 41.9490 -82.8220 90° East 472 543 35,000  Level FlightAware
04:09AM 41.9490 -82.7190 90° East 472 543 35,000  Level FlightAware
04:10AM 41.9500 -82.6150 89° East 472 543 35,000  Level FlightAware
04:10AM 41.9500 -82.4940 90° East 472 543 35,000  Level FlightAware
04:11AM 41.9500 -82.3940 90° East 472 543 35,000  Level FlightAware
04:12AM 41.9500 -82.2830 90° East 472 543 35,000  Level FlightAware
04:12AM 41.9500 -82.1670 90° East 472 543 35,000  Level FlightAware
04:13AM 41.9500 -82.0490 90° East 471 542 35,000  Level FlightAware
04:14AM 41.9500 -81.9520 90° East 471 542 35,000  Level FlightAware
04:14AM 41.9500 -81.8550 90° East 472 543 35,000  Level FlightAware
04:15AM 41.9490 -81.7530 91° East 473 544 35,000  Level FlightAware
04:15AM 41.9490 -81.6490 90° East 475 547 35,000  Level FlightAware
04:16AM 41.9480 -81.5230 91° East 475 547 35,000  Level FlightAware
04:16AM 41.9470 -81.4450 91° East 475 547 35,000  Level FlightAware
04:17AM 41.9460 -81.3190 91° East 474 545 35,000  Level FlightAware
04:18AM 41.9450 -81.2190 91° East 473 544 35,000  Level FlightAware
04:18AM 41.9450 -81.1280 90° East 473 544 35,000  Level FlightAware
04:19AM 41.9430 -81.0020 91° East 475 547 35,000  Level FlightAware
04:20AM 41.9420 -80.9150 91° East 476 548 35,000  Level FlightAware
04:20AM 41.9410 -80.7940 91° East 477 549 35,000  Level FlightAware
04:21AM 41.9390 -80.6850 91° East 478 550 35,000  Level FlightAware
04:21AM 41.9350 -80.5990 94° East 480 552 35,000  Level FlightAware
04:22AM 41.9280 -80.4930 95° East 493 567 35,000  Level FlightAware
04:22AM 41.9220 -80.3970 95° East 497 572 35,000  Level FlightAware
04:23AM 41.9150 -80.2850 95° East 496 571 35,000  Level FlightAware
04:24AM 41.9070 -80.1590 95° East 497 572 35,000  Level FlightAware
04:24AM 41.9000 -80.0550 95° East 497 572 35,000  Level FlightAware
04:25AM 41.8940 -79.9520 94° East 497 572 35,000  Level FlightAware
04:25AM 41.8870 -79.8540 95° East 496 571 35,000  Level FlightAware
04:26AM 41.8800 -79.7500 95° East 497 572 35,000  Level FlightAware
04:27AM 41.8730 -79.6330 95° East 496 571 35,000  Level FlightAware
04:27AM 41.8660 -79.5350 95° East 494 568 35,000  Level FlightAware
04:28AM 41.8580 -79.4200 95° East 492 566 35,000  Level FlightAware
04:28AM 41.8500 -79.3070 95° East 492 566 35,000  Level FlightAware
04:29AM 41.8420 -79.1950 95° East 491 565 35,000  Level FlightAware
04:29AM 41.8330 -79.0680 95° East 490 564 35,000  Level FlightAware
04:30AM 41.8250 -78.9540 95° East 488 562 35,000  Level FlightAware
04:31AM 41.8170 -78.8440 96° East 486 559 35,000  Level FlightAware
04:31AM 41.8100 -78.7500 96° East 484 557 35,000  Level FlightAware
04:32AM 41.8020 -78.6420 96° East 484 557 35,000  Level FlightAware
04:32AM 41.7940 -78.5390 96° East 485 558 35,000  Level FlightAware
04:33AM 41.7860 -78.4420 96° East 485 558 35,000  Level FlightAware
04:34AM 41.7780 -78.3380 96° East 485 558 35,000  Level FlightAware
04:34AM 41.7710 -78.2400 95° East 485 558 35,000  Level FlightAware
04:35AM 41.7610 -78.1230 96° East 485 558 35,000  Level FlightAware
04:35AM 41.7520 -78.0140 96° East 487 560 35,000  Level FlightAware
04:36AM 41.7430 -77.9040 96° East 487 560 35,000  Level FlightAware
04:37AM 41.7340 -77.7960 96° East 487 560 35,000  Level FlightAware
04:37AM 41.7250 -77.6820 96° East 487 560 35,000  Level FlightAware
04:38AM 41.7160 -77.5730 96° East 487 560 35,000  Level FlightAware
04:38AM 41.7060 -77.4660 97° East 485 558 35,000  Level FlightAware
04:39AM 41.6980 -77.3720 96° East 484 557 35,000  Level FlightAware
04:40AM 41.6890 -77.2660 96° East 483 556 35,000  Level FlightAware
04:40AM 41.6770 -77.1670 99° East 482 555 35,000  Level FlightAware
04:41AM 41.6530 -77.0570 106° East 481 554 35,000  Level FlightAware
04:41AM 41.6280 -76.9660 110° East 482 555 35,000  Level FlightAware
04:42AM 41.5910 -76.8310 110° East 484 557 35,000  Level FlightAware
04:43AM 41.5580 -76.7100 110° East 484 557 35,000  Level FlightAware
04:43AM 41.5310 -76.6120 110° East 483 556 35,000  Level FlightAware
04:44AM 41.5040 -76.5120 110° East 483 556 35,000  Level FlightAware
04:45AM 41.4790 -76.4220 110° East 482 555 35,000  Level FlightAware
04:45AM 41.4520 -76.3230 110° East 482 555 35,000  Level FlightAware
04:46AM 41.4250 -76.2260 110° East 485 558 35,000 -180 Level FlightAware
04:46AM 41.3960 -76.1230 111° Southeast 479 551 34,800 -1,260 Descending FlightAware
04:47AM 41.3680 -76.0260 111° Southeast 474 545 33,500 -2,400 Descending FlightAware
04:48AM 41.3410 -75.9290 110° East 475 547 32,000 -2,640 Descending FlightAware
04:48AM 41.3140 -75.8360 111° Southeast 475 547 30,500 -2,520 Descending FlightAware
04:49AM 41.2910 -75.7530 110° East 474 545 29,300 -2,340 Descending FlightAware
04:49AM 41.2610 -75.6530 112° Southeast 470 541 27,900 -2,400 Descending FlightAware
04:50AM 41.2290 -75.5590 114° Southeast 466 536 26,400 -2,400 Descending FlightAware
04:50AM 41.1970 -75.4630 114° Southeast 463 533 25,000 -2,340 Descending FlightAware
04:51AM 41.1660 -75.3700 114° Southeast 458 527 23,600 -1,800 Descending FlightAware
04:52AM 41.1380 -75.2880 114° Southeast 455 524 23,000 -540 Descending FlightAware
04:52AM 41.1070 -75.1960 114° Southeast 456 525 23,000  Level FlightAware
04:53AM 41.0800 -75.1150 114° Southeast 457 526 23,000  Level FlightAware
04:53AM 41.0460 -75.0170 115° Southeast 458 527 23,000  Level FlightAware
04:54AM 41.0160 -74.9250 113° Southeast 456 525 23,000 -540 Level FlightAware
04:54AM 40.9970 -74.8410 107° East 451 519 22,400 -1,080 Descending FlightAware
04:55AM 40.9760 -74.7420 106° East 446 513 21,800 -1,020 Descending FlightAware
04:56AM 40.9560 -74.6510 106° East 438 504 21,200 -960 Descending FlightAware
04:56AM 40.9360 -74.5580 106° East 432 497 20,700 -960 Descending FlightAware
04:57AM 40.9237 -74.5022 106° East 432 497 20,300 -1,020 Descending FlightAware ADS-B
04:57AM 40.9064 -74.4224 106° East 432 497 19,800 -960 Descending FlightAware ADS-B
04:58AM 40.8780 -74.2970 107° East 429 494 19,000 -660 Descending FlightAware
04:58AM 40.8473 -74.2419 126° Southeast 434 499 19,000  Level FlightAware ADS-B
04:59AM 40.7959 -74.1805 138° Southeast 434 499 19,000 -780 Level FlightAware ADS-B
05:00AM 40.7505 -74.1263 138° Southeast 430 495 18,200 -2,580 Descending FlightAware ADS-B
05:00AM 40.7029 -74.0695 138° Southeast 430 495 16,300 -3,060 Descending FlightAware ADS-B
05:01AM 40.6480 -74.0050 138° Southeast 410 472 14,600 -2,880 Descending FlightAware
05:01AM 40.5980 -73.9440 137° Southeast 395 455 12,700 -2,940 Descending FlightAware
05:02AM 40.5585 -73.8959 137° Southeast 377 434 11,400 -2,040 Descending FlightAware ADS-B
05:02AM 40.5130 -73.8400 137° Southeast 335 386 10,400 -1,500 Descending FlightAware
05:03AM 40.4820 -73.8030 138° Southeast 306 352 9,800 -1,680 Descending FlightAware
05:03AM 40.4620 -73.7790 138° Southeast 302 348 9,100 -1,980 Descending FlightAware
05:04AM 40.4420 -73.7540 136° Southeast 299 344 8,500 -2,100 Descending FlightAware
05:04AM 40.4170 -73.7240 138° Southeast 300 345 7,600 -2,160 Descending FlightAware
05:04AM 40.4060 -73.7050 127° Southeast 299 344 7,200 -2,100 Descending FlightAware
05:04AM 40.4020 -73.6940 116° Southeast 297 342 6,900 -2,040 Descending FlightAware
05:04AM 40.3990 -73.6800 106° East 292 336 6,700 -1,500 Descending FlightAware
05:04AM 40.3990 -73.6730 90° East 289 333 6,600 -2,340 Descending FlightAware
05:05AM 40.4080 -73.6390 71° East 280 322 5,700 -2,400 Descending FlightAware
05:05AM 40.4140 -73.6300 49° Northeast 278 320 5,400 -1,920 Descending FlightAware
05:05AM 40.4240 -73.6210 34° Northeast 272 313 5,200 -1,080 Descending FlightAware
05:05AM 40.4440 -73.6050 31° Northeast 256 295 4,900 -780 Descending FlightAware
05:06AM 40.4660 -73.5930 23° Northeast 238 274 4,700 -1,140 Descending FlightAware
05:06AM 40.4910 -73.5830 17° North 236 272 4,100 -1,260 Descending FlightAware
05:07AM 40.5120 -73.5760 14° North 230 265 3,800 -840 Descending FlightAware
05:07AM 40.5220 -73.5740 North 220 253 3,700 -600 Descending FlightAware
05:07AM 40.5400 -73.5850 335° Northwest 199 229 3,500 -660 Descending FlightAware
05:07AM 40.5560 -73.6030 319° Northwest 186 214 3,200 -1,200 Descending FlightAware
05:08AM 40.5680 -73.6160 321° Northwest 184 212 2,700 -1,380 Descending FlightAware
05:08AM 40.5820 -73.6310 321° Northwest 178 205 2,300 -1,320 Descending FlightAware
05:08AM 40.5920 -73.6450 313° West 181 208 1,900 -1,200 Descending FlightAware
05:09AM 40.6000 -73.6630 300° West 165 190 1,600 -900 Descending FlightAware
05:09AM 40.6070 -73.6780 302° West 150 173 1,300 -900 Descending FlightAware
05:09AM 40.6150 -73.6960 300° West 139 160 1,000 -900 Descending FlightAware
05:10AM 40.6210 -73.7100 299° West 136 157 700 -840 Descending FlightAware
05:10AM 40.6290 -73.7270 302° West 131 151 400 -720 Descending FlightAware
05:10AM 40.6350 -73.7410 299° West 131 151 200 -600 Descending FlightAware
05:11AM 40.6420 -73.7550 303° West 132 152 -600 Descending FlightAware
05:11AM 40.6470 -73.7660 301° West 133 153  Level FlightAware
05:26AM 40.6460 -73.7730 90° East  Level FlightAware
05:28AM 40.6460 -73.7730 90° East  Level FlightAware
05:31AM 40.6460 -73.7740 270° West  Level FlightAware
05:33AM 40.6460 -73.7730 90° East  Level FlightAware
05:37AM 40.6460 -73.7740 270° West  Level FlightAware
05:39AM 40.6460 -73.7730 90° East  Level FlightAware
05:43AM 40.6460 -73.7740 270° West  Level FlightAware
05:46AM 40.6460 -73.7730 90° East  Level FlightAware
05:48AM 40.6460 -73.7730 90° East  Level FlightAware
05:50AM 40.6460 -73.7730 90° East  Level FlightAware
05:52AM 40.6460 -73.7740 270° West  Level FlightAware
05:53AM 40.6460 -73.7730 90° East  Level FlightAware
05:56AM 40.6460 -73.7730 90° East  Level FlightAware
05:59AM 40.6460 -73.7730 90° East  Level FlightAware
06:01AM 40.6460 -73.7740 270° West  Level FlightAware
06:03AM 40.6460 -73.7730 90° East  Level FlightAware